首页
METAR-TAF:

METAR-TAF

机场 :

帕兰加国际机场

帕兰加, 立陶宛

纬度: 55-55-12N, 经度: 021-03E, 海拔: 10米

当前天气观测

该预报发布于10分钟前的00:20 UTC
风速7节,风向,在东转东北东转东南之间变化
温度 18°C
湿度 73%
气压 1005 hPa
能见度10公里或以上

METAR: EYPA 270020Z AUTO 09007KT 060V120 9999 NCD 18/13 Q1005

时间: 03:30 (00:30 UTC)

预报

该预报发布于1小时和22分钟前的23:08 UTC
预报有效从27日的 00点(UTC)到 27日的 24点(UTC)
风速14节,风向
能见度10公里或以上
1500米以下无云,无积雨云
短暂存在
从 27日的 06点(UTC)到 27日的 15点(UTC)
风速14节,风向,有时为24节阵风
成为
从 27日的 15点(UTC)到 27日的 16点(UTC)
风速14节,风向南转南东
阴天层高于3000英尺
短暂存在
从 27日的 16点(UTC)到 27日的 24点(UTC)
能見度: 3000
散云层高于500英尺
多云层高于2000英尺, 积雨云.
阵雨, 轻雾

TAF: EYPA 262308Z 2700/2724 08014KT CAVOK TEMPO 2706/2715 08014G24KT BECMG 2715/2716 16014KT OVC030 TEMPO 2716/2724 3000 SHRA BR SCT005 BKN020CB

超过4000个机场的气象观测和天气预报(METAR&TAF报告)。

可查询的气象台以黄色和红色小点在地图上表示。

将鼠标移到小点上方,可查看气象台名称。

然后点击查看天气观测和预报。

如需切换地图:点击带黑十字的绿色按钮放大地图;点击带横线的绿色按钮缩小地图;或者点击绿色箭头查看邻近地区的地图。


METAR-TAF: